Latest Weather Observations for Toowoomba

IDQ60801

Issued at 4:02 am EST Saturday 19 August 2017 (issued every 30 minutes, with the page automatically refreshed every 10 minutes)

About weather observations | Map of weather stations | Latest weather observations for QLD | Other Formats
Station Details ID: 041529 Name: TOOWOOMBA AIRPORT Lat: -27.54 Lon: 151.91 Height: 640.9 m
Data from the previous 72 hours. | See also: Recent months at Toowoomba
Date/Time
EST
Temp
°C
App
Temp
°C
Dew
Point
°C
Rel
Hum
%
Delta-T
°C
Wind Press
QNH
hPa
Press
MSL
hPa
Rain since
9am
mm
Dir  Spd
km/h
Gust
km/h
Spd
kts
Gust
kts
19/04:00am 6.3 -0.3 -3.3 50 3.6 WSW 22 33 12 18 1018.2 1017.3 0.0
19/03:30am 6.5 -0.5 -3.2 50 3.6 WSW 24 32 13 17 1018.2 1017.3 0.0
19/03:00am 6.9 -0.1 -3.1 49 3.7 WSW 24 32 13 17 1018.2 1017.3 0.0
19/02:30am 6.9 0.3 -3.3 48 3.8 WSW 22 33 12 18 1018.4 1017.6 0.0
19/02:00am 7.5 0.5 -3.1 47 4.0 WSW 24 32 13 17 1018.6 1017.7 0.0
19/01:30am 7.8 1.2 -3.1 46 4.1 WSW 22 28 12 15 1018.8 1017.9 0.0
19/01:00am 7.7 0.7 -3.2 46 4.1 WSW 24 32 13 17 1019.0 1018.1 0.0
19/12:30am 8.4 1.4 -3.1 44 4.4 WSW 24 32 13 17 1018.9 1018.0 0.0
19/12:00am 8.9 2.0 -3.0 43 4.6 WSW 24 33 13 18 1019.0 1018.1 0.0
 
Date/Time
EST
Temp
°C
App
Temp
°C
Dew
Point
°C
Rel
Hum
%
Delta-T
°C
Wind Press
QNH
hPa
Press
MSL
hPa
Rain since
9am
mm
Dir  Spd
km/h
Gust
km/h
Spd
kts
Gust
kts
18/11:30pm 9.0 2.4 -3.5 41 4.8 WSW 22 30 12 16 1019.0 1018.1 0.0
18/11:00pm 9.4 3.3 -3.8 39 5.0 WSW 19 26 10 14 1019.1 1018.2 0.0
18/10:30pm 10.2 3.9 -3.8 37 5.4 WSW 20 30 11 16 1019.1 1018.2 0.0
18/10:00pm 10.8 3.7 -4.0 35 5.7 WSW 24 33 13 18 1018.9 1018.0 0.0
18/09:30pm 11.1 4.8 -4.1 34 5.8 WSW 20 28 11 15 1018.9 1018.0 0.0
18/09:00pm 12.0 4.5 -4.6 31 6.4 WSW 26 33 14 18 1018.7 1017.8 0.0
18/08:30pm 12.8 4.9 -4.3 30 6.7 WSW 28 37 15 20 1018.4 1017.6 0.0
18/08:00pm 13.3 5.5 -3.9 30 6.8 WSW 28 39 15 21 1018.2 1017.3 0.0
18/07:30pm 13.7 5.6 -3.5 30 6.9 W 30 43 16 23 1018.0 1017.1 0.0
18/07:00pm 14.1 5.9 -4.1 28 7.2 W 30 43 16 23 1017.8 1016.9 0.0
18/06:30pm 14.7 6.4 -4.6 26 7.6 W 30 39 16 21 1017.4 1016.5 0.0
18/06:00pm 15.2 7.0 -3.6 27 7.6 WSW 30 43 16 23 1017.0 1016.1 0.0
18/05:30pm 15.7 7.9 -4.2 25 8.0 WSW 28 39 15 21 1016.7 1015.8 0.0
18/05:00pm 16.8 7.5 -5.0 22 8.7 WSW 35 48 19 26 1016.4 1015.5 0.0
18/04:37pm 17.3 7.6 -5.8 20 9.2 WSW 37 57 20 31 1016.1 1015.2 0.0
18/04:30pm 17.5 7.5 -5.0 21 9.1 WSW 39 52 21 28 1016.1 1015.2 0.0
18/04:00pm 17.9 7.0 -6.7 18 9.6 WSW 43 59 23 32 1015.7 1014.8 0.0
18/03:30pm 18.4 7.9 -5.6 19 9.7 WSW 41 63 22 34 1015.6 1014.7 0.0
18/03:00pm 18.3 8.0 -4.4 21 9.4 WSW 41 61 22 33 1015.6 1014.7 0.0
18/02:41pm 19.0 8.3 -4.4 20 9.7 WSW 43 61 23 33 1015.8 1014.9 0.0
18/02:30pm 18.7 8.4 -4.0 21 9.5 W 41 56 22 30 1015.7 1014.8 0.0
18/02:15pm 18.4 7.6 -4.9 20 9.5 W 43 63 23 34 1015.7 1014.8 0.0
18/02:00pm 18.4 7.2 -3.7 22 9.2 WSW 46 61 25 33 1015.9 1015.0 0.0
18/01:30pm 18.6 8.4 -3.5 22 9.3 WSW 41 65 22 35 1015.9 1015.0 0.0
18/01:21pm 18.6 8.7 -4.1 21 9.4 WSW 39 65 21 35 1016.0 1015.1 0.0
18/01:00pm 18.3 7.5 -3.8 22 9.2 W 44 57 24 31 1016.1 1015.2 0.0
18/12:30pm 18.2 7.7 -2.7 24 8.9 WSW 43 61 23 33 1016.5 1015.6 0.0
18/12:04pm 17.9 8.1 -2.9 24 8.8 WSW 39 57 21 31 1017.0 1016.1 0.0
18/12:00pm 18.2 8.8 -2.7 24 8.9 WSW 37 54 20 29 1017.0 1016.1 0.0
18/11:46am 18.2 9.0 -1.1 27 8.5 WSW 37 56 20 30 1017.3 1016.4 0.0
18/11:30am 17.6 7.2 -1.6 27 8.3 WSW 43 57 23 31 1017.5 1016.6 0.0
18/11:06am 17.0 7.7 -2.1 27 8.2 WSW 37 56 20 30 1017.8 1016.9 0.0
18/11:00am 18.0 8.9 -0.8 28 8.3 WSW 37 50 20 27 1017.9 1017.0 0.0
18/10:42am 17.0 7.3 -2.1 27 8.2 SW 39 57 21 31 1018.1 1017.2 0.0
18/10:30am 16.7 6.6 -2.4 27 8.1 WSW 41 56 22 30 1018.3 1017.5 0.0
18/10:14am 16.2 6.4 -2.8 27 7.9 WSW 39 57 21 31 1018.3 1017.5 0.0
18/10:00am 16.4 7.1 -2.1 28 7.8 WSW 37 52 20 28 1018.4 1017.6 0.0
18/09:30am 15.5 6.5 -2.4 29 7.5 WSW 35 48 19 26 1018.7 1017.8 0.0
18/09:00am 15.1 6.7 -2.3 30 7.3 WSW 32 44 17 24 1018.7 1017.8 0.0
18/08:30am 13.3 6.5 -2.2 34 6.4 W 24 39 13 21 1018.4 1017.6 0.0
18/08:00am 10.7 4.8 -0.7 45 4.7 W 20 26 11 14 1018.1 1017.2 0.0
18/07:30am 9.2 3.9 -0.7 50 4.0 W 17 20 9 11 1017.8 1016.9 0.0
18/07:00am 8.2 3.3 -0.3 55 3.5 W 15 20 8 11 1017.5 1016.6 0.0
18/06:30am 7.7 2.9 0.0 58 3.1 WNW 15 19 8 10 1017.3 1016.4 0.0
18/06:00am 7.8 3.0 0.3 59 3.1 WNW 15 17 8 9 1017.1 1016.2 0.0
18/05:30am 8.0 2.8 0.3 58 3.2 WNW 17 20 9 11 1016.7 1015.8 0.0
18/05:00am 8.8 3.7 0.5 56 3.5 WNW 17 20 9 11 1016.5 1015.6 0.0
18/04:30am 8.9 3.8 0.6 56 3.5 WNW 17 20 9 11 1016.3 1015.4 0.0
18/04:00am 9.5 4.4 0.9 55 3.7 WNW 17 26 9 14 1016.0 1015.1 0.0
18/03:30am 9.9 4.8 0.8 53 3.9 WNW 17 20 9 11 1016.0 1015.1 0.0
18/03:00am 10.8 5.7 0.8 50 4.3 WNW 17 20 9 11 1015.9 1015.0 0.0
18/02:30am 11.9 6.8 0.7 46 4.8 W 17 20 9 11 1016.0 1015.1 0.0
18/02:00am 13.5 7.6 -0.5 38 6.0 W 20 26 11 14 1016.2 1015.3 0.0
18/01:30am 13.8 8.2 0.1 39 6.0 W 19 26 10 14 1016.2 1015.3 0.0
18/01:00am 14.3 8.6 0.6 39 6.0 W 20 28 11 15 1016.3 1015.4 0.0
18/12:30am 14.7 9.1 0.9 39 6.2 WSW 20 28 11 15 1016.4 1015.5 0.0
18/12:00am 13.9 8.5 1.2 42 5.7 WSW 19 24 10 13 1016.4 1015.5 0.0
 
Date/Time
EST
Temp
°C
App
Temp
°C
Dew
Point
°C
Rel
Hum
%
Delta-T
°C
Wind Press
QNH
hPa
Press
MSL
hPa
Rain since
9am
mm
Dir  Spd
km/h
Gust
km/h
Spd
kts
Gust
kts
17/11:30pm 14.2 9.2 1.5 42 5.7 WSW 17 20 9 11 1016.4 1015.5 0.0
17/11:00pm 14.2 9.3 1.8 43 5.6 WSW 17 24 9 13 1016.5 1015.6 0.0
17/10:30pm 14.7 9.7 1.6 41 5.9 WSW 17 20 9 11 1016.5 1015.6 0.0
17/10:00pm 15.7 10.4 1.8 39 6.4 WSW 19 22 10 12 1016.4 1015.5 0.0
17/09:30pm 16.2 10.7 1.9 38 6.6 WSW 20 26 11 14 1016.3 1015.4 0.0
17/09:00pm 16.9 11.5 2.5 38 6.8 WSW 20 26 11 14 1016.3 1015.4 0.0
17/08:30pm 17.6 12.3 3.1 38 6.9 WSW 20 26 11 14 1016.2 1015.3 0.0
17/08:00pm 18.7 13.5 3.7 37 7.3 WSW 20 28 11 15 1015.9 1015.0 0.0
17/07:30pm 19.1 14.1 4.5 38 7.2 WSW 20 28 11 15 1015.6 1014.7 0.0
17/07:00pm 20.4 14.7 4.8 36 7.9 WSW 24 33 13 18 1015.1 1014.2 0.0
17/06:30pm 20.8 15.2 5.6 37 7.8 WSW 24 32 13 17 1014.7 1013.8 0.0
17/06:00pm 21.8 16.3 6.1 36 8.2 W 24 35 13 19 1014.3 1013.4 0.0
17/05:30pm 22.4 16.2 6.2 35 8.5 W 28 39 15 21 1013.9 1012.9 0.0
17/05:00pm 23.4 16.8 6.2 33 9.1 W 30 43 16 23 1013.7 1012.7 0.0
17/04:30pm 24.2 17.2 6.0 31 9.6 W 32 48 17 26 1013.3 1012.4 0.0
17/04:00pm 24.9 17.9 6.1 30 10.0 W 32 44 17 24 1013.0 1012.1 0.0
17/03:30pm 25.4 18.4 6.1 29 10.3 W 32 46 17 25 1012.8 1011.8 0.0
17/03:27pm 25.3 18.1 6.0 29 10.2 W 33 52 18 28 1012.7 1011.7 0.0
17/03:00pm 25.5 18.5 6.7 30 10.1 W 33 44 18 24 1012.8 1011.8 0.0
17/02:30pm 26.2 19.8 6.8 29 10.5 W 30 43 16 23 1012.8 1011.8 0.0
17/02:00pm 26.4 19.6 6.9 29 10.6 W 32 43 17 23 1012.9 1012.0 0.0
17/01:42pm 25.9 19.0 6.5 29 10.4 W 32 50 17 27 1012.9 1012.0 0.0
17/01:30pm 25.5 18.0 6.2 29 10.3 WNW 35 50 19 27 1013.1 1012.2 0.0
17/01:20pm 25.9 19.1 7.0 30 10.2 WNW 32 52 17 28 1013.2 1012.3 0.0
17/01:00pm 25.7 18.7 6.8 30 10.2 WNW 33 50 18 27 1013.4 1012.5 0.0
17/12:47pm 25.6 19.0 7.7 32 9.8 WNW 32 50 17 27 1013.7 1012.7 0.0
17/12:30pm 25.4 18.6 7.1 31 9.9 W 32 43 17 23 1013.8 1012.8 0.0
17/12:15pm 25.0 19.0 7.2 32 9.6 W 28 46 15 25 1014.0 1013.0 0.0
17/12:00pm 24.3 18.5 7.9 35 9.0 WNW 28 41 15 22 1014.3 1013.4 0.0
17/11:30am 24.0 19.3 9.2 39 8.2 WNW 24 33 13 18 1014.8 1013.9 0.0
17/11:00am 22.7 18.3 9.1 42 7.5 WNW 22 30 12 16 1015.6 1014.7 0.0
17/10:30am 21.5 17.0 10.0 48 6.4 WNW 24 32 13 17 1015.9 1015.0 0.0
17/10:00am 20.7 16.7 10.5 52 5.7 NW 22 35 12 19 1016.2 1015.3 0.0
17/09:30am 19.6 15.3 10.6 56 5.0 WNW 24 32 13 17 1016.4 1015.5 0.0
17/09:00am 18.5 14.3 11.1 62 4.1 NW 24 32 13 17 1016.4 1015.5 0.0
17/08:30am 17.5 13.4 11.5 68 3.4 NW 24 32 13 17 1016.4 1015.5 0.0
17/08:00am 16.8 13.0 11.1 69 3.2 NW 22 30 12 16 1016.3 1015.4 0.0
17/07:30am 15.9 12.3 10.4 70 3.0 NW 20 28 11 15 1016.1 1015.2 0.0
17/07:00am 15.3 11.8 10.1 71 2.8 NW 19 24 10 13 1015.9 1015.0 0.0
17/06:30am 14.9 11.2 9.5 70 2.9 NW 19 26 10 14 1015.6 1014.7 0.0
17/06:00am 15.3 11.3 9.2 67 3.2 NW 20 26 11 14 1015.3 1014.3 0.0
17/05:30am 15.9 12.0 9.3 65 3.5 WNW 20 30 11 16 1014.9 1014.0 0.0
17/05:00am 14.9 11.6 8.2 64 3.5 WNW 15 20 8 11 1014.9 1014.0 0.0
17/04:30am 14.9 11.5 7.7 62 3.7 W 15 20 8 11 1014.6 1013.7 0.0
17/04:00am 15.4 12.1 7.9 61 3.9 WNW 15 19 8 10 1014.3 1013.4 0.0
17/03:30am 15.1 12.1 7.9 62 3.7 W 13 15 7 8 1014.1 1013.1 0.0
17/03:00am 15.6 12.6 7.9 60 4.0 W 13 15 7 8 1014.3 1013.4 0.0
17/02:30am 16.8 13.9 8.0 56 4.6 WNW 13 17 7 9 1014.4 1013.5 0.0
17/02:00am 18.0 14.4 8.3 53 5.1 NW 17 24 9 13 1014.7 1013.8 0.0
17/01:30am 18.2 14.1 7.9 51 5.4 NW 19 22 10 12 1014.8 1013.9 0.0
17/01:00am 19.3 15.0 8.0 48 6.0 NW 20 30 11 16 1014.9 1014.0 0.0
17/12:30am 19.4 15.1 7.8 47 6.1 NW 20 32 11 17 1015.0 1014.1 0.0
17/12:00am 19.3 15.1 7.4 46 6.3 NW 19 28 10 15 1015.1 1014.2 0.0
 
Date/Time
EST
Temp
°C
App
Temp
°C
Dew
Point
°C
Rel
Hum
%
Delta-T
°C
Wind Press
QNH
hPa
Press
MSL
hPa
Rain since
9am
mm
Dir  Spd
km/h
Gust
km/h
Spd
kts
Gust
kts
16/11:30pm 19.8 15.4 7.5 45 6.5 NW 20 30 11 16 1015.1 1014.2 0.0
16/11:00pm 20.2 15.5 7.6 44 6.7 NW 22 30 12 16 1015.1 1014.2 0.0
16/10:30pm 20.4 15.6 7.4 43 6.9 NW 22 32 12 17 1015.1 1014.2 0.0
16/10:00pm 20.7 15.8 7.0 41 7.2 NW 22 32 12 17 1015.1 1014.2 0.0
16/09:30pm 21.2 16.3 7.1 40 7.5 NW 22 32 12 17 1015.1 1014.2 0.0
16/09:00pm 21.1 16.6 7.0 40 7.4 NW 20 28 11 15 1015.0 1014.1 0.0
16/08:30pm 21.6 17.2 6.7 38 7.8 NW 19 28 10 15 1014.8 1013.9 0.0
16/08:00pm 22.0 17.4 6.3 36 8.2 NW 20 30 11 16 1014.6 1013.7 0.0
16/07:30pm 22.1 17.9 5.9 35 8.4 NW 17 24 9 13 1014.3 1013.4 0.0
16/07:00pm 22.7 17.9 5.6 33 8.9 NW 20 24 11 13 1014.0 1013.0 0.0
16/06:30pm 22.9 18.0 4.9 31 9.2 NW 20 26 11 14 1013.7 1012.7 0.0
16/06:00pm 23.7 18.4 5.1 30 9.6 NW 22 32 12 17 1013.3 1012.4 0.0
16/05:30pm 24.3 18.9 4.6 28 10.1 NW 22 30 12 16 1013.1 1012.2 0.0
16/05:00pm 25.7 19.5 4.2 25 11.1 NW 26 37 14 20 1012.8 1011.8 0.0
16/04:30pm 26.5 18.9 3.7 23 11.7 NW 33 44 18 24 1012.5 1011.5 0.0
16/04:00pm 27.0 19.5 3.5 22 12.1 NW 32 50 17 27 1012.4 1011.4 0.0
16/03:46pm 27.3 19.7 3.7 22 12.2 NW 33 52 18 28 1012.4 1011.4 0.0
16/03:30pm 27.0 18.9 3.5 22 12.1 NW 35 44 19 24 1012.4 1011.4 0.0
16/03:07pm 27.5 20.6 4.5 23 12.0 WNW 30 48 16 26 1012.5 1011.5 0.0
16/03:00pm 27.3 19.9 5.0 24 11.8 NW 33 48 18 26 1012.5 1011.5 0.0
16/02:30pm 27.3 20.2 5.6 25 11.6 NW 32 50 17 27 1012.7 1011.7 0.0
16/02:00pm 26.6 18.8 5.0 25 11.4 WNW 35 56 19 30 1012.9 1012.0 0.0
16/01:35pm 26.4 19.1 5.4 26 11.1 WNW 33 57 18 31 1013.1 1012.2 0.0
16/01:30pm 27.2 20.3 6.6 27 11.2 NW 32 43 17 23 1013.2 1012.3 0.0
16/01:07pm 26.2 18.8 5.2 26 11.0 NW 33 54 18 29 1013.6 1012.6 0.0
16/01:00pm 27.0 19.9 6.4 27 11.1 NW 33 48 18 26 1013.7 1012.7 0.0
16/12:34pm 25.8 17.8 5.9 28 10.6 NW 37 56 20 30 1014.3 1013.4 0.0
16/12:30pm 26.1 18.6 6.2 28 10.6 NW 35 50 19 27 1014.4 1013.5 0.0
16/12:05pm 26.1 19.1 6.2 28 10.6 WNW 32 50 17 27 1014.8 1013.9 0.0
16/12:00pm 26.5 19.5 7.0 29 10.6 WNW 33 48 18 26 1014.9 1014.0 0.0
16/11:30am 25.1 17.2 6.3 30 10.0 NW 37 52 20 28 1015.5 1014.5 0.0
16/11:00am 24.7 17.4 7.4 33 9.4 NW 35 50 19 27 1016.1 1015.2 0.0
16/10:50am 24.6 18.3 7.3 33 9.4 NW 30 48 16 26 1016.2 1015.3 0.0
16/10:30am 23.8 16.5 7.0 34 9.0 NW 35 50 19 27 1016.6 1015.7 0.0
16/10:08am 23.3 17.0 7.4 36 8.6 NW 30 48 16 26 1017.0 1016.1 0.0
16/10:00am 23.5 17.6 7.6 36 8.6 NW 28 43 15 23 1017.1 1016.2 0.0
16/09:47am 22.8 16.1 7.4 37 8.3 NW 32 50 17 27 1017.3 1016.4 0.0
16/09:30am 22.6 15.8 7.6 38 8.1 NW 33 46 18 25 1017.4 1016.5 0.0
16/09:00am 20.5 14.8 6.8 41 7.2 NW 26 35 14 19 1017.5 1016.6 0.0
16/08:30am 20.1 14.4 6.8 42 6.9 NW 26 35 14 19 1017.6 1016.7 0.0
16/08:00am 19.2 13.6 5.6 41 6.9 NW 24 39 13 21 1017.5 1016.6 0.0
16/07:30am 17.7 13.3 5.0 43 6.3 NW 17 22 9 12 1017.3 1016.4 0.0
16/07:00am 15.4 11.5 3.5 45 5.6 NNW 13 17 7 9 1017.1 1016.2 0.0
16/06:30am 14.5 10.2 3.3 47 5.2 NNW 15 19 8 10 1017.0 1016.1 0.0
16/06:00am 15.3 11.0 3.1 44 5.7 N 15 22 8 12 1016.6 1015.7 0.0
16/05:30am 15.8 11.5 3.3 43 5.9 N 15 19 8 10 1016.5 1015.6 0.0
16/05:00am 15.5 11.2 3.3 44 5.8 N 15 20 8 11 1016.2 1015.3 0.0
16/04:30am 15.6 10.9 3.4 44 5.8 N 17 20 9 11 1016.2 1015.3 0.0

Other Formats:

Comma delimited format used in spreadsheet applications
http://www.bom.gov.au/fwo/IDQ60801/IDQ60801.95551.axf

JavaScript Object Notation format (JSON) in row-major order
http://www.bom.gov.au/fwo/IDQ60801/IDQ60801.95551.json